Time;durP1;ratioP1;P1;durP2;ratioP2;P2;SDS_P1;SDS_P2;PMS_P1;PMS_P2;Temp;Humidity;BMP_temperature;BMP_pressure;BME280_temperature;BME280_humidity;BME280_pressure;Samples;Min_cycle;Max_cycle;Signal;HPM_P1;HPM_P2
2022/02/25 00:00:45;;;;;;;4.37;4.07;;;6.60;99.90;;;;;;5054316;28;20647;-67
2022/02/25 00:03:13;;;;;;;4.40;4.10;;;6.70;99.90;;;;;;5054158;28;20194;-67
2022/02/25 00:05:39;;;;;;;4.50;3.87;;;6.70;99.90;;;;;;5053116;28;20409;-67
2022/02/25 00:08:05;;;;;;;4.10;3.90;;;6.70;99.90;;;;;;5053754;28;20421;-67
2022/02/25 00:10:31;;;;;;;4.27;3.87;;;6.70;99.90;;;;;;5053223;28;20483;-67
2022/02/25 00:12:56;;;;;;;4.00;3.70;;;6.70;99.90;;;;;;5054092;28;20418;-67
2022/02/25 00:15:22;;;;;;;4.17;3.87;;;6.80;99.90;;;;;;5053244;28;20414;-68
2022/02/25 00:17:48;;;;;;;4.23;3.83;;;6.70;99.90;;;;;;5053874;28;20229;-67
2022/02/25 00:20:15;;;;;;;4.33;3.93;;;6.70;99.90;;;;;;5051884;28;20221;-66
2022/02/25 00:22:41;;;;;;;4.87;4.33;;;6.70;99.90;;;;;;5052813;28;20262;-66
2022/02/25 00:25:09;;;;;;;5.15;4.72;;;6.50;99.90;;;;;;5053737;28;20429;-67
2022/02/25 00:27:37;;;;;;;4.57;4.07;;;6.70;99.90;;;;;;5052612;28;20570;-67
2022/02/25 00:30:04;;;;;;;4.87;4.47;;;6.70;99.90;;;;;;5052362;28;20454;-67
2022/02/25 00:32:30;;;;;;;5.20;4.70;;;6.70;99.90;;;;;;5052662;28;20454;-67
2022/02/25 00:34:56;;;;;;;5.57;4.27;;;6.60;99.90;;;;;;5053543;28;20912;-67
2022/02/25 00:37:21;;;;;;;4.33;3.73;;;6.70;99.90;;;;;;5052704;28;20221;-80
2022/02/25 00:39:47;;;;;;;4.70;4.30;;;6.70;99.90;;;;;;5053542;28;20474;-66
2022/02/25 00:42:13;;;;;;;5.80;5.30;;;6.70;99.90;;;;;;5068794;28;20181;-67
2022/02/25 00:44:39;;;;;;;4.60;4.20;;;6.80;99.90;;;;;;5052575;28;20696;-66
2022/02/25 00:47:06;;;;;;;4.40;4.00;;;6.80;99.90;;;;;;5053029;28;20190;-67
2022/02/25 00:49:32;;;;;;;4.17;3.87;;;6.70;99.90;;;;;;5052365;28;20453;-67
2022/02/25 00:51:58;;;;;;;6.40;3.78;;;6.80;99.90;;;;;;5052730;28;20530;-69
2022/02/25 00:54:24;;;;;;;7.20;4.30;;;6.40;99.90;;;;;;5052434;28;20580;-67
2022/02/25 00:56:49;;;;;;;4.30;3.90;;;6.90;99.90;;;;;;5052879;28;20412;-67
2022/02/25 00:59:15;;;;;;;8.03;3.77;;;6.80;99.90;;;;;;5052851;28;20234;-67
2022/02/25 01:01:42;;;;;;;6.73;4.23;;;6.50;99.90;;;;;;5051021;28;20211;-66
2022/02/25 01:04:08;;;;;;;4.67;4.37;;;6.80;99.90;;;;;;5052832;28;20640;-67
2022/02/25 01:06:34;;;;;;;4.37;4.07;;;6.80;99.90;;;;;;5052392;28;20516;-67
2022/02/25 01:09:00;;;;;;;4.27;3.87;;;6.90;99.90;;;;;;5052671;28;20803;-67
2022/02/25 01:11:26;;;;;;;4.17;3.83;;;6.80;99.90;;;;;;5051661;28;20442;-68
2022/02/25 01:13:51;;;;;;;4.57;4.17;;;7.00;99.90;;;;;;5052415;28;20429;-67
2022/02/25 01:16:17;;;;;;;5.20;4.70;;;6.90;99.90;;;;;;5052906;28;20623;-67
2022/02/25 01:18:43;;;;;;;4.63;4.23;;;6.90;99.90;;;;;;5051765;28;20183;-68
2022/02/25 01:21:09;;;;;;;6.40;4.80;;;6.80;99.90;;;;;;5051233;28;20228;-67
2022/02/25 01:23:34;;;;;;;5.83;4.67;;;6.90;99.90;;;;;;5051974;28;20262;-67
2022/02/25 01:26:00;;;;;;;4.80;4.40;;;6.60;99.90;;;;;;5053105;28;20179;-67
2022/02/25 01:28:26;;;;;;;4.97;4.57;;;6.90;99.90;;;;;;5052292;28;20176;-68
2022/02/25 01:30:53;;;;;;;4.80;4.30;;;7.00;99.90;;;;;;5052699;28;20922;-67
2022/02/25 01:33:19;;;;;;;5.47;4.70;;;6.80;99.90;;;;;;5052982;28;20758;-67
2022/02/25 01:35:45;;;;;;;6.10;4.63;;;6.80;99.90;;;;;;5051543;28;20417;-67
2022/02/25 01:38:10;;;;;;;6.40;4.27;;;6.80;99.90;;;;;;5051753;28;20476;-68
2022/02/25 01:40:36;;;;;;;4.73;4.20;;;6.90;99.90;;;;;;5050179;28;20946;-67
2022/02/25 01:43:03;;;;;;;5.47;5.00;;;6.80;99.90;;;;;;5051187;28;20179;-68
2022/02/25 01:45:32;;;;;;;4.70;4.40;;;6.80;99.90;;;;;;5057645;28;20247;-68
2022/02/25 01:47:58;;;;;;;5.57;5.07;;;6.80;99.90;;;;;;5050867;28;20430;-67
2022/02/25 01:50:23;;;;;;;4.97;4.47;;;6.80;99.90;;;;;;5050663;28;20863;-81
2022/02/25 01:52:55;;;;;;;5.73;5.17;;;6.70;99.90;;;;;;5049834;28;20415;-67
2022/02/25 01:55:21;;;;;;;5.43;4.40;;;6.70;99.90;;;;;;5049718;28;20908;-79
2022/02/25 01:57:47;;;;;;;5.80;4.60;;;6.70;99.90;;;;;;5034057;28;20408;-67
2022/02/25 02:00:13;;;;;;;4.33;3.73;;;6.70;99.90;;;;;;5052228;28;20666;-67
2022/02/25 02:02:39;;;;;;;4.47;4.10;;;6.60;99.90;;;;;;5051330;28;20543;-67
2022/02/25 02:05:05;;;;;;;4.50;3.73;;;6.60;99.90;;;;;;5052527;28;20416;-67
2022/02/25 02:07:30;;;;;;;6.37;3.83;;;6.60;99.90;;;;;;5051647;28;20186;-67
2022/02/25 02:09:56;;;;;;;4.07;3.67;;;6.70;99.90;;;;;;5051875;28;20803;-67
2022/02/25 02:12:22;;;;;;;6.00;3.90;;;6.70;99.90;;;;;;5051707;28;20595;-80
2022/02/25 02:14:48;;;;;;;4.40;4.00;;;6.70;99.90;;;;;;5051613;28;20184;-67
2022/02/25 02:17:14;;;;;;;4.13;3.83;;;6.70;99.90;;;;;;5052112;28;20272;-67
2022/02/25 02:19:40;;;;;;;4.93;4.20;;;6.70;99.90;;;;;;5050462;28;20408;-66
2022/02/25 02:22:06;;;;;;;3.43;3.20;;;6.80;99.90;;;;;;5052651;28;20179;-68
2022/02/25 02:24:32;;;;;;;6.60;3.23;;;6.60;99.90;;;;;;5051253;28;20513;-67
2022/02/25 02:26:58;;;;;;;4.20;3.77;;;6.60;99.90;;;;;;5051970;28;20468;-67
2022/02/25 02:29:24;;;;;;;3.60;2.80;;;6.10;99.90;;;;;;5051569;28;20559;-81
2022/02/25 02:31:50;;;;;;;5.33;3.00;;;6.50;99.90;;;;;;5051881;28;20436;-67
2022/02/25 02:34:17;;;;;;;3.10;2.90;;;6.50;99.90;;;;;;5050718;28;20257;-67
2022/02/25 02:36:43;;;;;;;2.93;2.70;;;6.50;99.90;;;;;;5051205;28;20182;-67
2022/02/25 02:39:11;;;;;;;7.37;3.37;;;6.50;99.90;;;;;;5033885;28;20430;-67
2022/02/25 02:41:37;;;;;;;3.70;2.70;;;6.60;99.90;;;;;;5049940;28;20411;-67
2022/02/25 02:44:04;;;;;;;3.53;3.03;;;6.30;99.90;;;;;;5050296;28;20425;-67
2022/02/25 02:46:30;;;;;;;3.50;3.20;;;6.60;99.90;;;;;;5051061;28;20455;-68
2022/02/25 02:48:55;;;;;;;5.33;2.70;;;6.60;99.90;;;;;;5034062;28;20466;-67
2022/02/25 02:51:21;;;;;;;6.57;3.87;;;6.60;99.90;;;;;;5051849;28;20420;-67
2022/02/25 02:53:47;;;;;;;4.43;3.20;;;6.60;99.90;;;;;;5054816;28;20254;-67
2022/02/25 02:56:13;;;;;;;3.57;3.27;;;6.60;99.90;;;;;;5037816;28;20176;-67
2022/02/25 02:58:39;;;;;;;3.97;3.43;;;6.60;99.90;;;;;;5054579;28;20261;-67
2022/02/25 03:01:06;;;;;;;4.90;2.93;;;6.50;99.70;;;;;;5055524;28;20894;-67
2022/02/25 03:03:32;;;;;;;3.73;3.33;;;6.60;99.80;;;;;;5054440;28;20414;-67
2022/02/25 03:05:57;;;;;;;5.70;3.97;;;6.60;99.90;;;;;;5055410;28;20417;-68
2022/02/25 03:08:24;;;;;;;4.97;3.33;;;6.60;99.50;;;;;;5055188;28;20457;-67
2022/02/25 03:10:50;;;;;;;4.17;3.47;;;6.50;99.80;;;;;;5054579;28;20249;-67
2022/02/25 03:13:16;;;;;;;3.73;3.43;;;6.20;99.60;;;;;;5053902;28;20383;-67
2022/02/25 03:15:46;;;;;;;3.88;3.58;;;6.40;99.90;;;;;;5036612;28;20863;-67
2022/02/25 03:18:13;;;;;;;4.10;3.17;;;6.50;99.90;;;;;;5055346;28;20211;-67
2022/02/25 03:20:39;;;;;;;3.93;3.53;;;6.50;99.70;;;;;;5053809;28;20465;-67
2022/02/25 03:23:05;;;;;;;4.27;3.00;;;6.50;99.70;;;;;;5054013;28;20433;-67
2022/02/25 03:25:31;;;;;;;5.10;3.40;;;6.50;99.30;;;;;;5054262;28;20417;-68
2022/02/25 03:27:57;;;;;;;4.37;3.30;;;6.40;99.60;;;;;;5054986;28;20562;-67
2022/02/25 03:30:23;;;;;;;7.53;3.07;;;6.30;99.60;;;;;;5054650;28;20675;-67
2022/02/25 03:32:51;;;;;;;3.77;2.80;;;6.30;99.80;;;;;;5054052;28;20596;-66
2022/02/25 03:35:18;;;;;;;4.80;3.20;;;6.40;99.60;;;;;;5052657;28;20433;-66
2022/02/25 03:37:45;;;;;;;4.63;3.60;;;6.40;99.50;;;;;;5034139;28;20428;-67
2022/02/25 03:40:11;;;;;;;6.30;3.40;;;6.30;99.40;;;;;;5017090;28;20183;-67
2022/02/25 03:42:38;;;;;;;6.77;3.03;;;6.50;99.40;;;;;;5032998;28;20414;-67
2022/02/25 03:45:05;;;;;;;2.70;2.50;;;6.40;99.20;;;;;;5034975;28;20392;-67
2022/02/25 03:47:34;;;;;;;4.40;2.73;;;6.40;99.00;;;;;;5034256;28;20178;-82
2022/02/25 03:50:01;;;;;;;6.07;2.90;;;6.40;98.90;;;;;;5052135;28;20423;-67
2022/02/25 03:52:27;;;;;;;4.45;2.90;;;6.40;98.70;;;;;;5054694;28;20228;-67
2022/02/25 03:54:53;;;;;;;5.37;2.67;;;6.40;98.80;;;;;;5053805;28;20182;-67
2022/02/25 03:57:19;;;;;;;6.93;2.93;;;6.40;98.60;;;;;;5053677;28;20949;-67
2022/02/25 03:59:44;;;;;;;6.87;2.70;;;6.40;98.80;;;;;;5053345;28;20425;-67
2022/02/25 04:02:10;;;;;;;4.60;2.97;;;6.10;98.40;;;;;;5053908;28;20193;-67
2022/02/25 04:04:36;;;;;;;2.87;2.43;;;6.40;98.50;;;;;;5053530;28;20182;-67
2022/02/25 04:07:01;;;;;;;4.63;2.73;;;6.40;98.50;;;;;;5054069;28;20178;-67
2022/02/25 04:09:27;;;;;;;3.90;2.37;;;6.50;98.60;;;;;;5054296;28;20300;-66
2022/02/25 04:11:54;;;;;;;5.23;2.70;;;6.50;98.60;;;;;;5053378;28;20673;-67
2022/02/25 04:14:21;;;;;;;5.40;3.05;;;6.00;98.10;;;;;;5053631;28;20175;-67
2022/02/25 04:16:49;;;;;;;3.08;2.78;;;6.40;98.10;;;;;;5053430;28;20178;-67
2022/02/25 04:19:16;;;;;;;4.53;3.00;;;6.50;98.50;;;;;;5054483;28;20198;-67
2022/02/25 04:21:42;;;;;;;3.67;3.10;;;6.50;98.30;;;;;;5053103;28;20308;-67
2022/02/25 04:24:09;;;;;;;5.93;2.97;;;6.50;98.20;;;;;;5052782;28;20179;-67
2022/02/25 04:26:35;;;;;;;2.90;2.50;;;6.50;98.30;;;;;;5053369;28;20421;-68
2022/02/25 04:29:01;;;;;;;3.72;3.03;;;6.50;98.40;;;;;;5052839;28;20202;-67
2022/02/25 04:31:26;;;;;;;5.77;3.03;;;6.60;98.40;;;;;;5052366;28;20180;-67
2022/02/25 04:33:52;;;;;;;4.60;2.83;;;6.60;98.10;;;;;;5052739;28;20175;-67
2022/02/25 04:36:20;;;;;;;3.10;2.77;;;6.60;98.10;;;;;;5069222;28;20176;-67
2022/02/25 04:38:51;;;;;;;8.90;3.87;;;6.60;97.80;;;;;;5052972;28;20202;-67
2022/02/25 04:41:17;;;;;;;5.60;3.10;;;6.20;97.70;;;;;;5053639;28;20392;-67
2022/02/25 04:43:43;;;;;;;4.97;3.40;;;6.60;97.80;;;;;;5052864;28;20428;-67
2022/02/25 04:46:17;;;;;;;3.97;3.30;;;6.60;97.80;;;;;;5054059;28;20391;-67
2022/02/25 04:48:43;;;;;;;7.22;3.78;;;6.60;97.90;;;;;;5052022;28;20174;-68
2022/02/25 04:51:09;;;;;;;9.20;2.60;;;6.60;97.80;;;;;;5053284;28;20174;-67
2022/02/25 04:53:35;;;;;;;3.53;3.03;;;6.50;98.10;;;;;;5052789;28;20907;-82
2022/02/25 04:56:06;;;;;;;4.30;3.20;;;6.20;97.90;;;;;;5052858;28;20403;-67
2022/02/25 04:58:33;;;;;;;5.63;3.42;;;6.50;98.10;;;;;;5051953;28;20527;-83
2022/02/25 05:01:01;;;;;;;4.95;3.20;;;5.90;97.80;;;;;;5052810;28;20178;-67
2022/02/25 05:03:27;;;;;;;5.68;3.83;;;6.40;98.30;;;;;;5053534;28;20630;-66
2022/02/25 05:05:52;;;;;;;3.03;2.73;;;6.40;98.30;;;;;;5052418;28;20178;-67
2022/02/25 05:08:18;;;;;;;3.23;2.87;;;6.40;98.20;;;;;;5052949;28;20394;-67
2022/02/25 05:10:44;;;;;;;3.87;2.90;;;6.30;98.20;;;;;;5051976;28;20218;-67
2022/02/25 05:13:10;;;;;;;5.83;3.40;;;6.30;98.40;;;;;;5052840;28;20178;-67
2022/02/25 05:21:05;;;;;;;5.07;4.28;;;6.20;98.80;;;;;;5052799;28;20677;-67
2022/02/25 05:23:31;;;;;;;3.47;2.80;;;6.10;98.80;;;;;;5052233;28;20185;-67
2022/02/25 05:25:57;;;;;;;3.90;3.40;;;6.10;98.70;;;;;;5050773;28;20421;-67
2022/02/25 05:28:23;;;;;;;6.82;3.67;;;6.20;98.70;;;;;;5051652;28;20427;-67
2022/02/25 05:30:49;;;;;;;6.93;3.43;;;6.20;98.70;;;;;;5049760;28;20230;-73
2022/02/25 05:33:15;;;;;;;6.80;3.30;;;6.20;98.50;;;;;;5051531;28;20407;-67
2022/02/25 05:35:41;;;;;;;3.90;3.33;;;6.10;98.60;;;;;;5050388;28;20174;-66
2022/02/25 05:38:07;;;;;;;5.78;3.90;;;5.70;98.60;;;;;;5034990;28;20542;-66
2022/02/25 05:40:32;;;;;;;3.50;2.93;;;6.20;98.80;;;;;;5051737;28;20182;-66
2022/02/25 05:43:00;;;;;;;5.50;3.20;;;6.20;98.60;;;;;;5050730;28;20189;-66
2022/02/25 05:45:26;;;;;;;4.97;3.08;;;6.00;98.60;;;;;;5051792;28;20193;-66
2022/02/25 05:47:52;;;;;;;10.13;3.97;;;6.20;98.90;;;;;;5050314;28;20606;-66
2022/02/25 05:50:19;;;;;;;9.95;4.47;;;6.20;98.70;;;;;;5051535;28;20857;-67
2022/02/25 05:52:46;;;;;;;6.70;3.20;;;6.20;98.90;;;;;;5050905;28;20191;-67
2022/02/25 05:55:12;;;;;;;5.93;3.70;;;5.80;98.40;;;;;;5051930;28;20410;-67
2022/02/25 05:57:38;;;;;;;9.07;3.85;;;6.10;98.60;;;;;;5051231;28;20173;-79
2022/02/25 06:00:07;;;;;;;7.90;4.40;;;6.20;98.50;;;;;;5049935;28;20177;-67
2022/02/25 06:02:33;;;;;;;6.72;3.83;;;6.30;98.50;;;;;;5051580;28;20209;-67
2022/02/25 06:04:59;;;;;;;6.15;3.50;;;6.30;98.50;;;;;;5051555;28;20239;-67
2022/02/25 06:07:25;;;;;;;4.77;3.70;;;6.20;98.30;;;;;;5051038;28;20638;-67
2022/02/25 06:09:50;;;;;;;3.07;2.87;;;6.10;98.70;;;;;;5050913;28;20455;-67
2022/02/25 06:12:16;;;;;;;6.40;3.20;;;6.30;98.80;;;;;;5052224;28;20731;-66
2022/02/25 06:14:42;;;;;;;5.00;3.50;;;6.10;98.90;;;;;;5051018;28;20174;-70
2022/02/25 06:17:08;;;;;;;6.60;3.38;;;6.20;98.80;;;;;;5050731;28;20707;-68
2022/02/25 06:19:34;;;;;;;6.10;3.40;;;6.30;98.60;;;;;;5054952;28;20182;-69
2022/02/25 06:22:00;;;;;;;6.00;3.50;;;6.30;98.50;;;;;;5049513;28;20427;-69
2022/02/25 06:24:26;;;;;;;5.10;3.95;;;6.30;98.50;;;;;;5051709;28;20183;-67
2022/02/25 06:26:52;;;;;;;6.07;3.37;;;6.30;98.30;;;;;;5050944;28;20264;-67
2022/02/25 06:29:18;;;;;;;4.00;2.97;;;6.30;98.60;;;;;;5055943;28;20745;-67
2022/02/25 06:31:43;;;;;;;12.13;4.30;;;6.30;98.40;;;;;;5053577;28;20421;-68
2022/02/25 06:34:09;;;;;;;7.80;3.30;;;6.40;98.40;;;;;;5055067;28;20269;-67
2022/02/25 06:36:35;;;;;;;6.03;3.60;;;6.30;98.40;;;;;;5055405;28;20284;-68
2022/02/25 06:39:01;;;;;;;5.17;3.77;;;6.50;98.50;;;;;;5053423;28;20178;-68
2022/02/25 06:41:27;;;;;;;7.00;3.00;;;6.70;98.40;;;;;;5055427;28;20174;-67
2022/02/25 06:43:55;;;;;;;8.70;3.57;;;6.50;98.20;;;;;;5053349;28;20178;-68
2022/02/25 06:46:21;;;;;;;6.20;3.97;;;6.10;98.00;;;;;;5054759;28;20431;-67
2022/02/25 06:48:46;;;;;;;4.63;3.00;;;6.50;98.20;;;;;;5054791;28;20176;-68
2022/02/25 06:51:12;;;;;;;4.03;2.57;;;6.40;98.40;;;;;;5053872;28;20388;-68
2022/02/25 06:53:38;;;;;;;6.00;3.35;;;6.50;98.40;;;;;;5054229;28;20168;-80
2022/02/25 06:56:04;;;;;;;6.20;3.27;;;6.20;98.20;;;;;;5052289;28;20288;-67
2022/02/25 06:58:30;;;;;;;7.33;4.00;;;6.70;98.30;;;;;;5054882;28;20400;-67
2022/02/25 07:00:56;;;;;;;8.47;3.80;;;6.50;98.30;;;;;;5054201;28;20448;-68
2022/02/25 07:03:22;;;;;;;5.83;3.67;;;6.50;98.10;;;;;;5055117;28;20391;-67
2022/02/25 07:05:48;;;;;;;7.60;3.47;;;6.50;97.90;;;;;;5054061;28;20975;-68
2022/02/25 07:08:15;;;;;;;8.57;3.40;;;6.50;98.10;;;;;;5054449;28;20219;-68
2022/02/25 07:10:41;;;;;;;6.25;3.70;;;6.50;98.20;;;;;;5054681;28;20205;-72
2022/02/25 07:13:09;;;;;;;7.57;3.53;;;6.40;98.40;;;;;;5053853;28;20236;-68
2022/02/25 07:15:35;;;;;;;5.40;2.80;;;6.10;98.70;;;;;;5054315;28;20617;-68
2022/02/25 07:18:02;;;;;;;7.45;3.78;;;6.30;99.00;;;;;;5053965;28;20441;-67
2022/02/25 07:20:28;;;;;;;5.47;3.35;;;6.40;99.00;;;;;;5053910;28;20695;-68
2022/02/25 07:22:54;;;;;;;5.57;3.30;;;5.90;99.10;;;;;;5052278;28;20227;-67
2022/02/25 07:25:21;;;;;;;5.95;3.50;;;6.30;99.10;;;;;;5053355;28;20221;-67
2022/02/25 07:27:47;;;;;;;6.22;2.45;;;6.50;99.00;;;;;;5051620;28;20226;-67
2022/02/25 07:30:14;;;;;;;2.77;2.37;;;6.20;99.10;;;;;;5052790;28;20222;-67
2022/02/25 07:32:40;;;;;;;5.30;3.65;;;6.20;99.50;;;;;;5053353;28;20912;-75
2022/02/25 07:35:08;;;;;;;5.22;3.17;;;5.80;99.00;;;;;;5053152;28;20174;-67
2022/02/25 07:37:34;;;;;;;12.97;3.73;;;6.10;99.00;;;;;;5053240;28;20224;-67
2022/02/25 07:40:00;;;;;;;8.27;2.70;;;6.20;99.30;;;;;;5051872;28;20479;-68
2022/02/25 07:42:26;;;;;;;8.13;2.70;;;5.90;99.10;;;;;;5053717;28;20189;-68
2022/02/25 07:44:52;;;;;;;5.67;3.70;;;6.30;99.40;;;;;;5052603;28;20166;-68
2022/02/25 07:47:19;;;;;;;6.83;4.53;;;6.30;99.50;;;;;;5053367;28;20181;-68
2022/02/25 07:49:46;;;;;;;9.20;3.23;;;6.40;99.80;;;;;;5052289;28;20212;-70
2022/02/25 07:52:12;;;;;;;8.13;3.40;;;6.30;99.90;;;;;;5050229;28;20428;-68
2022/02/25 07:54:38;;;;;;;7.30;4.10;;;6.50;99.90;;;;;;5051620;28;20433;-68
2022/02/25 07:57:04;;;;;;;12.20;4.97;;;6.60;99.40;;;;;;5052352;28;20178;-68
2022/02/25 07:59:31;;;;;;;8.73;3.80;;;6.50;99.50;;;;;;5051090;28;22013;-70
2022/02/25 08:01:56;;;;;;;7.22;2.80;;;6.50;99.40;;;;;;5051486;28;20417;-68
2022/02/25 08:04:22;;;;;;;4.50;3.20;;;6.60;99.70;;;;;;5055475;28;20265;-68
2022/02/25 08:06:48;;;;;;;5.13;3.37;;;6.70;99.70;;;;;;5050161;28;20532;-69
2022/02/25 08:09:14;;;;;;;6.87;4.27;;;6.80;99.90;;;;;;5053225;28;20211;-68
2022/02/25 08:11:40;;;;;;;6.70;3.07;;;6.80;99.30;;;;;;5053408;28;20663;-68
2022/02/25 08:14:06;;;;;;;7.73;3.37;;;6.70;99.30;;;;;;5052356;28;20183;-68
2022/02/25 08:16:31;;;;;;;10.70;4.33;;;6.70;99.30;;;;;;5055090;28;20418;-67
2022/02/25 08:18:57;;;;;;;10.60;3.60;;;6.80;99.30;;;;;;5056963;28;20202;-68
2022/02/25 08:21:23;;;;;;;7.50;4.17;;;6.90;99.60;;;;;;5015295;28;1085204;-68
2022/02/25 08:23:48;;;;;;;6.40;3.37;;;6.80;99.90;;;;;;5053214;28;20657;-68
2022/02/25 08:26:14;;;;;;;7.07;3.83;;;6.80;99.90;;;;;;5057681;28;20734;-69
2022/02/25 08:28:40;;;;;;;7.27;3.93;;;6.70;99.90;;;;;;5053652;28;20176;-67
2022/02/25 08:31:11;;;;;;;6.53;3.90;;;6.60;99.90;;;;;;5052870;28;20192;-68
2022/02/25 08:33:38;;;;;;;8.37;3.30;;;6.50;99.90;;;;;;5053473;28;20198;-68
2022/02/25 08:36:05;;;;;;;8.20;3.27;;;6.60;99.90;;;;;;5052952;28;20433;-67
2022/02/25 08:38:31;;;;;;;6.90;4.70;;;6.50;99.90;;;;;;5053992;28;20437;-67
2022/02/25 08:40:56;;;;;;;8.13;3.53;;;5.90;99.90;;;;;;5052686;28;20424;-67
2022/02/25 08:43:23;;;;;;;6.47;3.90;;;6.30;99.90;;;;;;5053390;28;20179;-68
2022/02/25 08:45:50;;;;;;;5.38;3.75;;;6.40;99.90;;;;;;5052657;28;20227;-68
2022/02/25 08:48:16;;;;;;;6.60;4.20;;;6.40;99.90;;;;;;5053707;28;20177;-68
2022/02/25 08:50:42;;;;;;;7.40;4.20;;;6.30;99.90;;;;;;5052014;28;20206;-68
2022/02/25 08:53:09;;;;;;;8.00;4.43;;;6.30;99.90;;;;;;5052219;28;20748;-68
2022/02/25 08:55:35;;;;;;;8.35;4.88;;;6.30;99.90;;;;;;5053103;28;20404;-67
2022/02/25 08:58:01;;;;;;;8.93;4.40;;;6.00;99.90;;;;;;5052397;28;20178;-68
2022/02/25 09:00:27;;;;;;;10.13;4.97;;;6.30;99.90;;;;;;5053138;28;20274;-67
2022/02/25 09:02:53;;;;;;;9.73;4.23;;;6.40;99.90;;;;;;5052348;28;20651;-67
2022/02/25 09:05:21;;;;;;;10.33;4.20;;;6.50;99.90;;;;;;5052666;28;20178;-68
2022/02/25 09:07:47;;;;;;;5.70;5.10;;;6.50;99.90;;;;;;5050779;28;20399;-75
2022/02/25 09:10:15;;;;;;;8.30;3.90;;;6.30;99.90;;;;;;5051072;28;20962;-68
2022/02/25 09:12:42;;;;;;;11.48;5.05;;;6.20;99.90;;;;;;5051335;28;20186;-67
2022/02/25 09:15:10;;;;;;;8.10;4.53;;;6.50;99.90;;;;;;5050620;28;20208;-68
2022/02/25 09:17:38;;;;;;;10.70;4.05;;;6.40;99.90;;;;;;5051124;28;20532;-68
2022/02/25 09:20:05;;;;;;;5.70;4.80;;;6.40;99.90;;;;;;5050457;28;20222;-68
2022/02/25 09:22:30;;;;;;;7.30;4.20;;;6.40;99.90;;;;;;5051425;28;20388;-68
2022/02/25 09:24:57;;;;;;;5.83;4.30;;;6.50;99.90;;;;;;5049043;28;20997;-68
2022/02/25 09:27:24;;;;;;;8.50;5.23;;;6.50;99.90;;;;;;5049852;28;20221;-68
2022/02/25 09:29:50;;;;;;;8.90;4.57;;;6.30;99.90;;;;;;5050554;28;20548;-67
2022/02/25 09:32:16;;;;;;;8.20;4.40;;;6.60;99.90;;;;;;5050771;28;20425;-68
2022/02/25 09:34:41;;;;;;;4.57;4.17;;;6.20;99.90;;;;;;5050876;28;20429;-69
2022/02/25 09:37:07;;;;;;;6.27;3.67;;;6.70;99.90;;;;;;5050143;28;20409;-68
2022/02/25 09:39:33;;;;;;;11.80;4.63;;;6.70;99.90;;;;;;5051236;28;20189;-67
2022/02/25 09:41:59;;;;;;;21.50;6.80;;;6.40;99.90;;;;;;5051325;28;20191;-68
2022/02/25 09:44:26;;;;;;;15.37;5.60;;;6.70;99.90;;;;;;5051203;28;20175;-69
2022/02/25 09:46:52;;;;;;;12.40;6.50;;;6.40;99.90;;;;;;5050476;28;20493;-69
2022/02/25 09:49:18;;;;;;;10.87;5.10;;;6.80;99.90;;;;;;5051526;28;20555;-69
2022/02/25 09:51:46;;;;;;;11.17;5.47;;;6.80;99.90;;;;;;5052260;28;20591;-68
2022/02/25 09:54:16;;;;;;;8.70;4.03;;;6.90;99.90;;;;;;5051704;28;20406;-69
2022/02/25 09:56:43;;;;;;;11.03;4.03;;;7.10;99.90;;;;;;5034070;28;20448;-69
2022/02/25 09:59:09;;;;;;;6.30;4.90;;;7.30;99.90;;;;;;5050562;28;20508;-69
2022/02/25 10:01:36;;;;;;;10.57;5.03;;;7.40;99.90;;;;;;5054321;28;20522;-68
2022/02/25 10:04:13;;;;;;;6.93;4.90;;;7.60;99.90;;;;;;5050942;28;20419;-67
2022/02/25 10:06:39;;;;;;;9.13;4.40;;;7.80;99.90;;;;;;5051791;28;20427;-70
2022/02/25 10:09:26;;;;;;;10.70;4.60;;;7.90;99.90;;;;;;5050885;28;20494;-69
2022/02/25 10:12:12;;;;;;;8.43;4.90;;;7.90;99.90;;;;;;5048160;28;20442;-70
2022/02/25 10:14:41;;;;;;;7.77;4.20;;;7.90;99.90;;;;;;5049508;28;20440;-72
2022/02/25 10:17:19;;;;;;;16.57;5.17;;;8.00;99.90;;;;;;5051481;28;20854;-69
2022/02/25 10:19:52;;;;;;;12.70;5.67;;;7.90;99.90;;;;;;5051837;28;20378;-69
2022/02/25 10:22:21;;;;;;;6.10;4.50;;;7.90;99.90;;;;;;5052178;28;20782;-68
2022/02/25 10:24:49;;;;;;;5.80;4.87;;;8.00;99.90;;;;;;5052083;28;20442;-68
2022/02/25 10:27:26;;;;;;;6.23;4.00;;;8.10;99.90;;;;;;5052070;28;20431;-68
2022/02/25 10:30:03;;;;;;;11.30;4.50;;;8.10;99.90;;;;;;5052979;28;20470;-70
2022/02/25 10:32:38;;;;;;;5.37;4.80;;;8.00;99.90;;;;;;5046307;28;20463;-70
2022/02/25 10:35:40;;;;;;;10.13;5.07;;;8.10;99.90;;;;;;5050555;28;20407;-69
2022/02/25 10:38:15;;;;;;;8.07;4.67;;;8.10;99.90;;;;;;5048673;28;20420;-70
2022/02/25 10:40:46;;;;;;;7.53;5.30;;;8.10;99.90;;;;;;5050423;28;20424;-70
2022/02/25 10:43:25;;;;;;;7.83;5.60;;;8.10;99.90;;;;;;5049871;28;20878;-69
2022/02/25 10:45:56;;;;;;;8.20;4.20;;;8.10;99.90;;;;;;5032528;28;20412;-77
2022/02/25 10:48:28;;;;;;;8.83;5.23;;;8.10;99.90;;;;;;5033102;28;20416;-70
2022/02/25 10:50:59;;;;;;;8.10;5.50;;;8.20;99.90;;;;;;5050680;28;20526;-70
2022/02/25 10:53:49;;;;;;;11.43;4.70;;;7.60;99.90;;;;;;5048872;28;20430;-68
2022/02/25 10:56:16;;;;;;;9.73;4.57;;;8.10;99.90;;;;;;5047969;28;20921;-74
2022/02/25 10:58:51;;;;;;;7.37;5.07;;;8.10;99.90;;;;;;5050042;28;20406;-67
2022/02/25 11:01:22;;;;;;;9.40;4.53;;;8.10;99.90;;;;;;5050814;28;20443;-68
2022/02/25 11:04:06;;;;;;;11.00;5.13;;;8.10;99.90;;;;;;5051617;28;20439;-68
2022/02/25 11:06:32;;;;;;;7.53;5.10;;;8.10;99.90;;;;;;5051053;28;20423;-69
2022/02/25 11:08:59;;;;;;;8.73;5.07;;;8.10;99.90;;;;;;5058497;28;20474;-70
2022/02/25 11:11:25;;;;;;;8.23;5.00;;;8.10;99.90;;;;;;5053038;28;20934;-70
2022/02/25 11:13:52;;;;;;;13.53;5.80;;;8.20;99.90;;;;;;5055590;28;20980;-70
2022/02/25 11:16:19;;;;;;;12.33;5.70;;;8.30;99.90;;;;;;5055172;28;20434;-70
2022/02/25 11:18:46;;;;;;;7.53;6.20;;;8.30;99.90;;;;;;5039437;28;20420;-69
2022/02/25 11:21:14;;;;;;;15.00;6.00;;;8.30;99.90;;;;;;5054005;28;20467;-69
2022/02/25 11:23:43;;;;;;;7.20;5.97;;;8.40;99.90;;;;;;5054232;28;20457;-70
2022/02/25 11:26:10;;;;;;;9.37;5.07;;;8.60;99.90;;;;;;5054305;28;20446;-70
2022/02/25 11:28:37;;;;;;;6.13;4.93;;;8.60;99.90;;;;;;5054782;28;20463;-69
2022/02/25 11:31:11;;;;;;;9.67;5.17;;;8.70;99.90;;;;;;5054256;28;20502;-68
2022/02/25 11:33:37;;;;;;;8.17;4.87;;;8.70;99.90;;;;;;5054656;28;20415;-69
2022/02/25 11:36:07;;;;;;;11.47;5.00;;;8.70;99.90;;;;;;5054280;28;20401;-68
2022/02/25 11:38:46;;;;;;;9.00;5.47;;;8.70;99.90;;;;;;5054563;28;20903;-67
2022/02/25 11:41:18;;;;;;;11.43;4.90;;;8.70;99.90;;;;;;5052879;28;20825;-67
2022/02/25 11:43:57;;;;;;;5.27;4.77;;;8.70;99.90;;;;;;5052133;28;20460;-68
2022/02/25 11:46:29;;;;;;;11.00;5.23;;;8.70;99.90;;;;;;5052673;28;20420;-67
2022/02/25 11:48:59;;;;;;;6.43;4.70;;;8.60;99.90;;;;;;5053504;28;20408;-68
2022/02/25 11:52:06;;;;;;;8.13;5.40;;;8.70;99.90;;;;;;5054399;28;20442;-67
2022/02/25 11:54:52;;;;;;;5.40;4.73;;;8.70;99.90;;;;;;5054141;28;20424;-75
2022/02/25 11:57:23;;;;;;;7.93;4.77;;;8.60;99.90;;;;;;5053854;28;20413;-67
2022/02/25 11:59:49;;;;;;;5.53;4.10;;;8.60;99.90;;;;;;5054360;28;20181;-67
2022/02/25 12:02:16;;;;;;;10.23;6.20;;;8.60;99.90;;;;;;5053527;28;20409;-67
2022/02/25 12:04:47;;;;;;;13.53;6.27;;;8.70;99.90;;;;;;5054411;28;20176;-68
2022/02/25 12:07:37;;;;;;;10.87;6.20;;;8.70;99.90;;;;;;5053229;28;20812;-67
2022/02/25 12:10:22;;;;;;;7.60;4.23;;;8.60;99.90;;;;;;5044695;28;20940;-68
2022/02/25 12:13:03;;;;;;;6.10;4.27;;;8.50;99.90;;;;;;5053582;28;20457;-68
2022/02/25 12:15:35;;;;;;;7.73;4.30;;;8.40;99.90;;;;;;5053224;28;20408;-67
2022/02/25 12:18:04;;;;;;;6.30;4.70;;;8.30;99.90;;;;;;5053559;28;20507;-68
2022/02/25 12:20:50;;;;;;;7.10;6.40;;;8.30;99.90;;;;;;5052229;28;20809;-68
2022/02/25 12:23:21;;;;;;;6.27;5.43;;;8.30;99.90;;;;;;5052936;28;21052;-67
2022/02/25 12:26:04;;;;;;;5.90;5.20;;;8.30;99.90;;;;;;5051435;28;20833;-67
2022/02/25 12:28:33;;;;;;;5.40;4.90;;;8.30;99.90;;;;;;5052800;28;20424;-67
2022/02/25 12:31:19;;;;;;;8.23;5.07;;;8.40;99.90;;;;;;5050230;28;20483;-70
2022/02/25 12:33:44;;;;;;;6.53;5.10;;;8.70;99.90;;;;;;5043409;28;20534;-67
2022/02/25 12:36:27;;;;;;;7.83;5.30;;;8.90;99.90;;;;;;5052331;28;20979;-67
2022/02/25 12:39:02;;;;;;;8.60;4.60;;;9.10;99.90;;;;;;5054206;28;20158;-67
2022/02/25 12:41:35;;;;;;;5.20;4.50;;;9.20;99.90;;;;;;5054439;28;20396;-70
2022/02/25 12:44:02;;;;;;;9.90;6.80;;;9.30;99.90;;;;;;5057563;28;20499;-68
2022/02/25 12:46:32;;;;;;;6.57;5.87;;;9.40;99.90;;;;;;5051635;28;20963;-67
2022/02/25 12:48:58;;;;;;;10.20;6.17;;;9.30;99.90;;;;;;5052890;28;20486;-75
2022/02/25 12:51:25;;;;;;;8.83;5.00;;;9.30;99.90;;;;;;5052881;28;20442;-72
2022/02/25 12:54:23;;;;;;;9.87;5.60;;;9.30;99.90;;;;;;5034734;28;20412;-68
2022/02/25 12:56:52;;;;;;;8.43;5.20;;;9.20;99.90;;;;;;5048086;28;20490;-69
2022/02/25 12:59:20;;;;;;;8.13;5.20;;;9.30;99.90;;;;;;5052114;28;20432;-67
2022/02/25 13:01:54;;;;;;;7.93;5.13;;;9.20;99.90;;;;;;5053124;28;20452;-68
2022/02/25 13:04:28;;;;;;;6.10;4.90;;;9.10;99.90;;;;;;5047634;28;20682;-66